Time;durP1;ratioP1;P1;durP2;ratioP2;P2;SDS_P1;SDS_P2;PMS_P1;PMS_P2;Temp;Humidity;BMP_temperature;BMP_pressure;BME280_temperature;BME280_humidity;BME280_pressure;Samples;Min_cycle;Max_cycle;Signal;HPM_P1;HPM_P2
2022/02/01 00:00:08;;;;;;;22.85;8.28;;;;;;;-1.17;82.83;96770.04;1830971;78;20840;-60
2022/02/01 00:02:34;;;;;;;19.87;8.53;;;;;;;-1.19;82.67;96770.01;1827439;78;20872;-64
2022/02/01 00:05:07;;;;;;;18.35;8.03;;;;;;;-1.25;82.49;96772.31;1827573;78;20883;-60
2022/02/01 00:10:20;;;;;;;23.65;8.05;;;;;;;-1.29;82.43;96783.81;1830744;78;20916;-62
2022/02/01 00:13:09;;;;;;;23.85;8.58;;;;;;;-1.27;82.40;96787.53;1828542;78;20899;-61
2022/02/01 00:18:27;;;;;;;26.40;8.40;;;;;;;-1.26;82.36;96789.91;1831022;78;20876;-61
2022/02/01 00:37:05;;;;;;;21.40;8.75;;;;;;;-1.42;82.25;96785.50;1816767;78;20900;-63
2022/02/01 00:39:31;;;;;;;23.40;8.60;;;;;;;-1.42;82.29;96783.67;1798378;79;20910;-60
2022/02/01 00:41:58;;;;;;;19.60;8.38;;;;;;;-1.41;82.29;96785.76;1798720;79;20964;-58
2022/02/01 00:44:25;;;;;;;20.60;8.45;;;;;;;-1.34;82.27;96793.48;1799247;79;20841;-63
2022/02/01 00:46:51;;;;;;;24.07;8.80;;;;;;;-1.37;82.17;96788.97;1798953;79;21839;-58
2022/02/01 00:49:18;;;;;;;22.73;8.25;;;;;;;-1.39;82.14;96793.67;1798677;79;20952;-63
2022/02/01 00:51:45;;;;;;;26.45;8.45;;;;;;;-1.40;82.22;96796.04;1798736;79;20907;-59
2022/02/01 00:54:11;;;;;;;21.27;8.43;;;;;;;-1.37;82.25;96795.27;1798801;79;21369;-58
2022/02/01 00:56:39;;;;;;;19.95;8.33;;;;;;;-1.37;82.17;96799.22;1799067;79;21459;-63
2022/02/01 00:59:06;;;;;;;23.00;8.28;;;;;;;-1.39;82.07;96785.02;1798747;79;21101;-61
2022/02/01 01:01:32;;;;;;;26.35;8.03;;;;;;;-1.39;82.10;96790.27;1798643;79;20893;-62
2022/02/01 01:03:59;;;;;;;21.37;9.48;;;;;;;-1.39;82.03;96779.77;1798842;79;21483;-62
2022/02/01 01:06:28;;;;;;;20.23;8.85;;;;;;;-1.41;82.02;96777.36;1799089;79;20912;-63
2022/02/01 01:08:55;;;;;;;21.68;8.80;;;;;;;-1.46;81.96;96777.84;1798849;79;20869;-61
2022/02/01 01:11:21;;;;;;;22.00;8.63;;;;;;;-1.51;82.06;96782.48;1798801;79;21039;-58
2022/02/01 01:53:54;;;;;;;23.65;9.03;;;;;;;-1.92;82.71;96800.02;1799051;79;21368;-64
2022/02/01 01:56:21;;;;;;;23.92;8.58;;;;;;;-1.96;82.84;96798.92;1798809;79;21452;-61
2022/02/01 01:58:47;;;;;;;25.02;9.95;;;;;;;-1.97;82.86;96799.94;1798784;79;20948;-64
2022/02/01 02:01:14;;;;;;;20.02;8.68;;;;;;;-2.03;82.94;96798.80;1798729;79;20841;-64
2022/02/01 02:03:45;;;;;;;23.77;9.63;;;;;;;-2.05;83.05;96800.36;1798801;79;21112;-63
2022/02/01 02:06:13;;;;;;;23.67;9.40;;;;;;;-2.09;83.06;96801.84;1798472;79;20868;-59
2022/02/01 02:08:47;;;;;;;26.62;9.60;;;;;;;-2.12;83.14;96809.68;1799086;79;20951;-64
2022/02/01 02:11:25;;;;;;;19.60;9.08;;;;;;;-2.11;83.15;96805.23;1798820;79;20912;-64
2022/02/01 02:16:43;;;;;;;19.70;9.30;;;;;;;-2.14;83.09;96810.44;1798973;79;21116;-61
2022/02/01 02:19:10;;;;;;;25.32;9.65;;;;;;;-2.16;83.05;96805.14;1799172;79;20917;-63
2022/02/01 02:21:38;;;;;;;23.27;9.45;;;;;;;-2.17;83.03;96814.07;1798877;79;21023;-61
2022/02/01 02:24:07;;;;;;;22.17;9.78;;;;;;;-2.18;82.97;96809.84;1798939;79;20877;-64
2022/02/01 02:26:34;;;;;;;21.10;8.80;;;;;;;-2.18;82.91;96812.47;1798887;79;20873;-59
2022/02/01 02:29:03;;;;;;;22.25;9.08;;;;;;;-2.17;82.87;96811.45;1799179;79;21391;-59
2022/02/01 02:31:32;;;;;;;21.42;8.95;;;;;;;-2.15;82.84;96815.93;1798796;79;21486;-64
2022/02/01 02:34:03;;;;;;;22.22;8.93;;;;;;;-2.10;82.74;96813.39;1799135;79;21459;-60
2022/02/01 02:36:29;;;;;;;25.88;9.33;;;;;;;-2.09;82.67;96816.28;1799137;79;20948;-61
2022/02/01 02:42:33;;;;;;;19.67;9.38;;;;;;;-2.07;82.48;96798.47;1807595;79;21107;-62
2022/02/01 02:46:54;;;;;;;23.40;9.63;;;;;;;-2.12;82.06;96801.80;1807719;79;20889;-62
2022/02/01 02:49:23;;;;;;;19.15;9.25;;;;;;;-2.17;82.02;96797.02;1807414;79;21507;-62
2022/02/01 02:51:50;;;;;;;27.55;10.00;;;;;;;-2.25;81.92;96799.52;1807330;79;20966;-62
2022/02/01 02:54:22;;;;;;;23.90;9.88;;;;;;;-2.29;81.97;96801.03;1807606;78;21767;-60
2022/02/01 02:56:55;;;;;;;20.92;9.88;;;;;;;-2.33;82.01;96803.83;1807345;78;20924;-59
2022/02/01 02:59:23;;;;;;;19.32;9.30;;;;;;;-2.35;81.94;96802.47;1807433;79;21426;-59
2022/02/01 03:01:50;;;;;;;26.20;9.98;;;;;;;-2.41;81.88;96807.36;1807304;79;20936;-59
2022/02/01 03:04:22;;;;;;;24.20;10.95;;;;;;;-2.45;81.86;96808.88;1807441;79;20904;-63
2022/02/01 03:06:49;;;;;;;24.23;9.83;;;;;;;-2.45;81.87;96810.19;1807319;79;21088;-62
2022/02/01 03:09:16;;;;;;;20.00;10.30;;;;;;;-2.50;81.79;96814.83;1807248;78;20865;-61
2022/02/01 03:11:43;;;;;;;28.25;10.70;;;;;;;-2.56;81.90;96810.51;1807307;79;20888;-62
2022/02/01 03:22:21;;;;;;;22.40;10.57;;;;;;;-2.66;82.02;96823.42;1807891;79;20885;-63
2022/02/01 03:24:49;;;;;;;28.52;11.08;;;;;;;-2.68;82.07;96828.63;1807094;79;21028;-63
2022/02/01 03:27:16;;;;;;;23.50;10.78;;;;;;;-2.68;82.12;96827.31;1807659;79;20865;-60
2022/02/01 03:29:43;;;;;;;23.65;10.40;;;;;;;-2.68;82.07;96840.41;1807419;79;20940;-62
2022/02/01 03:32:10;;;;;;;27.05;10.60;;;;;;;-2.70;81.91;96843.28;1807556;79;21075;-62
2022/02/01 03:34:36;;;;;;;22.60;11.18;;;;;;;-2.70;81.86;96848.53;1807548;79;20857;-62
2022/02/01 03:37:04;;;;;;;25.65;10.75;;;;;;;-2.72;81.88;96847.16;1806676;78;20904;-58
2022/02/01 03:39:31;;;;;;;21.80;10.50;;;;;;;-2.72;81.87;96841.92;1798909;79;20865;-60
2022/02/01 03:41:58;;;;;;;22.87;10.60;;;;;;;-2.69;81.86;96845.39;1798879;79;20969;-60
2022/02/01 03:44:24;;;;;;;22.67;10.55;;;;;;;-2.67;81.70;96845.45;1798991;79;21428;-62
2022/02/01 03:47:03;;;;;;;24.43;9.85;;;;;;;-2.62;81.39;96844.74;1799119;79;20905;-61
2022/02/01 03:49:35;;;;;;;21.73;10.13;;;;;;;-2.60;81.17;96846.10;1798921;79;21467;-60
2022/02/01 03:52:04;;;;;;;22.70;10.35;;;;;;;-2.61;80.68;96841.88;1799049;79;20881;-61
2022/02/01 03:54:31;;;;;;;22.93;10.75;;;;;;;-2.60;80.55;96838.74;1798871;79;21399;-59
2022/02/01 03:56:59;;;;;;;23.00;10.80;;;;;;;-2.62;80.40;96842.92;1799070;79;21767;-60
2022/02/01 03:59:26;;;;;;;17.12;9.40;;;;;;;-2.62;80.21;96855.23;1798836;79;21395;-62
2022/02/01 04:01:55;;;;;;;17.80;9.55;;;;;;;-2.64;80.07;96857.30;1798791;79;21391;-62
2022/02/01 04:04:31;;;;;;;22.82;9.48;;;;;;;-2.64;80.04;96853.36;1798750;79;20842;-58
2022/02/01 04:06:57;;;;;;;20.67;9.03;;;;;;;-2.64;79.66;96857.30;1799362;79;21006;-60
2022/02/01 04:09:24;;;;;;;21.20;9.73;;;;;;;-2.65;79.38;96866.98;1798975;79;21726;-59
2022/02/01 04:11:56;;;;;;;16.35;8.63;;;;;;;-2.65;79.18;96876.15;1798837;79;20897;-62
2022/02/01 04:14:26;;;;;;;24.60;9.68;;;;;;;-2.64;79.13;96883.00;1799240;79;20872;-62
2022/02/01 04:16:51;;;;;;;15.72;8.80;;;;;;;-2.61;78.98;96885.64;1798720;79;21370;-61
2022/02/01 04:19:18;;;;;;;19.80;9.48;;;;;;;-2.59;78.74;96892.78;1798892;79;20960;-61
2022/02/01 04:22:03;;;;;;;23.42;9.13;;;;;;;-2.56;78.45;96892.30;1799161;79;21109;-59
2022/02/01 04:24:36;;;;;;;19.90;9.68;;;;;;;-2.52;78.24;96894.75;1798715;79;20869;-60
2022/02/01 04:27:04;;;;;;;22.22;10.08;;;;;;;-2.53;78.21;96896.57;1798775;79;20838;-63
2022/02/01 04:29:31;;;;;;;21.93;9.58;;;;;;;-2.51;77.91;96901.57;1798845;79;21494;-61
2022/02/01 04:31:57;;;;;;;23.05;9.35;;;;;;;-2.50;78.04;96905.29;1799065;78;20920;-59
2022/02/01 04:34:24;;;;;;;23.15;9.80;;;;;;;-2.47;78.03;96905.34;1798822;79;21103;-59
2022/02/01 04:36:52;;;;;;;21.45;8.98;;;;;;;-2.44;78.08;96907.47;1798969;79;20920;-62
2022/02/01 04:39:18;;;;;;;20.15;10.00;;;;;;;-2.40;77.96;96908.62;1827146;78;20880;-63
2022/02/01 04:41:45;;;;;;;17.50;9.50;;;;;;;-2.38;77.68;96908.64;1830903;78;20911;-61
2022/02/01 04:44:12;;;;;;;19.98;9.05;;;;;;;-2.34;77.28;96914.23;1830525;78;20962;-63
2022/02/01 04:46:39;;;;;;;19.25;8.68;;;;;;;-2.33;77.37;96914.52;1830899;78;21715;-63
2022/02/01 04:49:09;;;;;;;23.92;9.50;;;;;;;-2.33;77.31;96923.16;1830462;78;20879;-59
2022/02/01 04:51:35;;;;;;;19.00;9.20;;;;;;;-2.37;77.11;96930.42;1830423;78;20867;-58
2022/02/01 04:54:01;;;;;;;20.37;10.25;;;;;;;-2.46;77.09;96939.69;1830580;78;21378;-62
2022/02/01 04:56:28;;;;;;;17.42;9.13;;;;;;;-2.49;77.34;96938.84;1830512;78;20962;-59
2022/02/01 04:58:55;;;;;;;22.62;9.13;;;;;;;-2.52;77.34;96936.70;1830628;78;21666;-62
2022/02/01 05:01:30;;;;;;;24.07;9.75;;;;;;;-2.54;77.37;96935.61;1830550;78;20942;-64
2022/02/01 05:03:50;;;;;;;19.17;9.45;;;;;;;-2.58;77.40;96936.30;1829143;78;21411;-64
2022/02/01 05:06:17;;;;;;;20.82;9.40;;;;;;;-2.64;77.50;96934.63;1830688;78;21452;-63
2022/02/01 05:08:44;;;;;;;18.40;8.90;;;;;;;-2.70;77.63;96941.58;1830637;78;20952;-60
2022/02/01 05:11:11;;;;;;;23.35;9.93;;;;;;;-2.76;77.76;96947.22;1830504;78;21107;-58
2022/02/01 05:16:18;;;;;;;20.52;9.63;;;;;;;-2.82;77.95;96957.84;1830889;78;20951;-63
2022/02/01 05:18:50;;;;;;;22.95;9.18;;;;;;;-2.86;77.96;96957.52;1829789;78;20915;-59
2022/02/01 05:23:47;;;;;;;16.65;9.55;;;;;;;-2.94;78.18;96971.47;1830619;78;21087;-58
2022/02/01 05:26:14;;;;;;;22.25;9.25;;;;;;;-2.97;78.20;96976.64;1830545;78;20864;-60
2022/02/01 05:28:42;;;;;;;23.35;10.08;;;;;;;-2.99;78.31;96975.31;1830490;78;20927;-59
2022/02/01 05:31:09;;;;;;;22.77;10.32;;;;;;;-3.03;78.45;96977.58;1830665;78;20919;-63
2022/02/01 05:33:36;;;;;;;20.05;9.73;;;;;;;-3.08;78.52;96986.62;1830756;78;21386;-58
2022/02/01 05:36:04;;;;;;;21.85;10.08;;;;;;;-3.06;78.70;96995.05;1830885;78;21072;-59
2022/02/01 05:38:31;;;;;;;22.82;10.72;;;;;;;-3.04;78.68;96991.69;1816425;78;21423;-59
2022/02/01 05:40:58;;;;;;;21.77;9.93;;;;;;;-3.08;78.72;96986.62;1798800;79;20916;-60
2022/02/01 05:43:27;;;;;;;24.37;10.88;;;;;;;-3.11;78.74;96994.94;1798704;79;20865;-60
2022/02/01 05:45:59;;;;;;;25.80;11.10;;;;;;;-3.15;78.84;97000.35;1799032;79;20865;-62
2022/02/01 05:48:26;;;;;;;18.57;9.68;;;;;;;-3.17;78.93;97002.91;1798912;79;21692;-62
2022/02/01 05:50:54;;;;;;;26.42;11.08;;;;;;;-3.23;79.01;97007.76;1799121;79;21439;-60
2022/02/01 05:53:21;;;;;;;24.37;11.68;;;;;;;-3.31;79.18;97011.50;1798885;79;20877;-62
2022/02/01 05:55:48;;;;;;;25.52;11.48;;;;;;;-3.37;79.25;97012.42;1799174;79;20999;-65
2022/02/01 05:58:15;;;;;;;22.40;10.85;;;;;;;-3.35;79.42;97013.48;1798998;79;20869;-63
2022/02/01 06:00:42;;;;;;;26.97;11.97;;;;;;;-3.33;79.42;97022.72;1799088;79;21745;-59
2022/02/01 06:03:08;;;;;;;25.70;10.80;;;;;;;-3.34;79.42;97020.34;1798925;79;21358;-61
2022/02/01 06:05:35;;;;;;;22.67;11.35;;;;;;;-3.35;79.45;97030.01;1799262;79;20873;-65
2022/02/01 06:08:02;;;;;;;24.00;11.40;;;;;;;-3.37;79.48;97029.44;1798954;79;20910;-60
2022/02/01 06:10:29;;;;;;;22.73;10.82;;;;;;;-3.38;79.54;97023.91;1799177;79;20944;-63
2022/02/01 06:12:56;;;;;;;20.12;10.95;;;;;;;-3.38;79.51;97034.38;1799178;79;21716;-60
2022/02/01 06:15:25;;;;;;;22.58;11.55;;;;;;;-3.37;79.48;97034.67;1799058;79;21368;-63
2022/02/01 06:17:51;;;;;;;22.30;10.93;;;;;;;-3.39;79.50;97035.39;1799237;79;21300;-64
2022/02/01 06:20:18;;;;;;;25.60;11.30;;;;;;;-3.38;79.44;97040.92;1799098;79;20904;-60
2022/02/01 06:22:45;;;;;;;22.37;10.80;;;;;;;-3.38;79.44;97040.92;1798967;79;20939;-60
2022/02/01 06:25:12;;;;;;;22.45;10.60;;;;;;;-3.34;79.28;97045.98;1799207;79;21627;-60
2022/02/01 06:27:39;;;;;;;23.70;10.95;;;;;;;-3.30;79.06;97043.23;1798870;79;20917;-61
2022/02/01 06:30:27;;;;;;;19.07;10.23;;;;;;;-3.26;78.91;97037.81;1798943;79;20881;-61
2022/02/01 06:32:54;;;;;;;20.32;10.75;;;;;;;-3.22;78.83;97038.15;1807777;77;20849;-60
2022/02/01 06:35:21;;;;;;;26.70;12.45;;;;;;;-3.14;78.72;97043.87;1792248;78;20947;-61
2022/02/01 06:37:47;;;;;;;21.68;11.40;;;;;;;-3.07;78.44;97060.28;1739923;80;21116;-62
2022/02/01 06:40:18;;;;;;;24.72;11.78;;;;;;;-3.02;77.98;97066.95;1792937;77;20943;-64
2022/02/01 06:42:45;;;;;;;20.77;10.70;;;;;;;-2.95;77.93;97063.71;1797605;77;20916;-62
2022/02/01 06:45:12;;;;;;;19.02;9.55;;;;;;;-2.87;77.57;97069.10;1796252;77;20897;-61
2022/02/01 06:47:39;;;;;;;25.97;11.35;;;;;;;-2.82;77.27;97065.29;1800033;77;21475;-59
2022/02/01 06:50:07;;;;;;;23.60;11.03;;;;;;;-2.76;76.52;97066.48;1806937;77;21096;-59
2022/02/01 06:52:34;;;;;;;21.35;10.10;;;;;;;-2.67;76.10;97064.84;1763717;79;21033;-65
2022/02/01 06:55:01;;;;;;;23.47;10.38;;;;;;;-2.67;75.58;97068.27;1777634;80;21487;-64
2022/02/01 06:57:28;;;;;;;23.87;10.50;;;;;;;-2.67;75.29;97064.84;1752776;82;21003;-65
2022/02/01 06:59:55;;;;;;;21.70;9.40;;;;;;;-2.64;75.16;97065.20;1723503;82;21439;-64
2022/02/01 07:02:22;;;;;;;16.45;9.03;;;;;;;-2.59;74.85;97069.75;1743427;81;21082;-62
2022/02/01 07:04:48;;;;;;;20.82;9.05;;;;;;;-2.55;74.72;97076.13;1802738;79;21035;-63
2022/02/01 07:07:15;;;;;;;22.20;9.55;;;;;;;-2.48;74.58;97073.67;1774988;80;21023;-64
2022/02/01 07:09:41;;;;;;;23.42;9.60;;;;;;;-2.37;74.30;97073.36;1774484;80;21035;-66
2022/02/01 07:12:10;;;;;;;16.50;9.50;;;;;;;-2.28;73.87;97070.16;1774574;80;21249;-65
2022/02/01 07:14:37;;;;;;;17.25;8.63;;;;;;;-2.17;73.22;97066.70;1775081;80;22151;-63
2022/02/01 07:17:04;;;;;;;21.62;9.53;;;;;;;-2.10;73.10;97078.40;1802466;79;21035;-63
2022/02/01 07:19:32;;;;;;;19.60;8.80;;;;;;;-1.98;72.89;97079.17;1779994;79;20991;-62
2022/02/01 07:21:59;;;;;;;23.73;9.68;;;;;;;-1.88;72.35;97083.28;1771474;79;20951;-62
2022/02/01 07:24:30;;;;;;;19.45;8.50;;;;;;;-1.81;72.01;97085.26;1783406;80;21081;-66
2022/02/01 07:26:58;;;;;;;22.35;9.83;;;;;;;-1.75;71.66;97071.72;1783782;80;21112;-59
2022/02/01 07:29:27;;;;;;;16.10;8.43;;;;;;;-1.64;71.43;97073.49;1773500;79;21354;-62
2022/02/01 07:31:53;;;;;;;18.32;9.18;;;;;;;-1.55;70.84;97065.01;1754363;81;21470;-60
2022/02/01 07:34:20;;;;;;;19.87;9.18;;;;;;;-1.47;70.23;97065.95;1768975;79;20958;-61
2022/02/01 07:36:47;;;;;;;22.42;9.08;;;;;;;-1.43;70.01;97068.89;1780967;80;20951;-59
2022/02/01 07:39:14;;;;;;;18.62;10.05;;;;;;;-1.37;70.24;97071.36;1785499;80;21118;-64
2022/02/01 07:41:41;;;;;;;18.17;9.30;;;;;;;-1.24;70.27;97076.03;1785394;80;20958;-60
2022/02/01 07:44:07;;;;;;;15.55;8.30;;;;;;;-1.06;69.69;97075.83;1785488;80;20983;-63
2022/02/01 07:46:34;;;;;;;16.02;8.15;;;;;;;-0.99;67.56;97080.41;1785483;80;20953;-61
2022/02/01 07:49:02;;;;;;;15.98;7.17;;;;;;;-0.95;66.17;97086.27;1785894;80;20955;-61
2022/02/01 07:51:29;;;;;;;15.93;8.15;;;;;;;-0.96;66.15;97085.17;1785549;80;21112;-64
2022/02/01 07:53:56;;;;;;;15.43;7.15;;;;;;;-0.88;65.89;97087.42;1777021;79;20993;-62
2022/02/01 07:56:26;;;;;;;14.90;7.20;;;;;;;-0.79;65.23;97096.49;1797447;78;20899;-61
2022/02/01 07:58:55;;;;;;;15.23;7.30;;;;;;;-0.72;64.42;97101.08;1769641;79;20875;-63
2022/02/01 08:01:22;;;;;;;17.30;7.08;;;;;;;-0.58;63.58;97107.60;1753837;81;20990;-61
2022/02/01 08:03:49;;;;;;;11.80;6.60;;;;;;;-0.42;62.09;97108.09;1753747;81;21146;-65
2022/02/01 08:06:16;;;;;;;13.48;6.85;;;;;;;-0.20;61.97;97107.63;1752695;81;21684;-69
2022/02/01 08:08:42;;;;;;;14.38;6.50;;;;;;;-0.03;61.12;97112.34;1756045;80;20978;-60
2022/02/01 08:11:13;;;;;;;10.98;6.22;;;;;;;-0.02;60.08;97115.23;1761008;79;21097;-58
2022/02/01 08:17:29;;;;;;;12.50;6.37;;;;;;;-0.18;60.53;97118.70;1785704;80;21107;-59
2022/02/01 08:19:15;;;;;;;13.85;6.72;;;;;;;-0.24;59.79;97119.69;1765455;79;21379;-65
2022/02/01 08:21:42;;;;;;;13.55;7.30;;;;;;;-0.39;59.88;97129.98;1765616;80;21370;-57
2022/02/01 08:24:09;;;;;;;16.37;7.50;;;;;;;-0.51;60.70;97133.22;1755226;80;20934;-62
2022/02/01 08:26:36;;;;;;;13.28;7.05;;;;;;;-0.56;60.71;97134.45;1754605;81;21315;-64
2022/02/01 08:29:02;;;;;;;14.07;7.72;;;;;;;-0.57;61.13;97125.50;1775449;79;21124;-62
2022/02/01 08:31:30;;;;;;;16.93;7.10;;;;;;;-0.51;61.41;97129.27;1780309;80;20864;-63
2022/02/01 08:33:57;;;;;;;14.98;7.25;;;;;;;-0.47;60.91;97135.64;1766616;80;20875;-62
2022/02/01 08:36:23;;;;;;;13.28;7.20;;;;;;;-0.45;61.53;97146.75;1761171;80;20875;-65
2022/02/01 08:38:49;;;;;;;11.90;7.60;;;;;;;-0.29;61.11;97153.02;1767812;80;21426;-62
2022/02/01 08:41:16;;;;;;;13.83;7.10;;;;;;;-0.15;60.01;97152.45;1779495;80;21052;-62
2022/02/01 08:43:42;;;;;;;12.45;6.22;;;;;;;-0.08;60.67;97152.27;1779026;80;20958;-65
2022/02/01 08:46:09;;;;;;;14.07;6.80;;;;;;;0.04;60.37;97145.06;1752168;80;20962;-64
2022/02/01 08:48:35;;;;;;;15.08;7.15;;;;;;;0.21;60.02;97146.33;1749594;81;21457;-62
2022/02/01 08:51:07;;;;;;;14.95;6.97;;;;;;;0.30;58.63;97133.00;1749621;82;21015;-63
2022/02/01 08:53:45;;;;;;;13.25;6.90;;;;;;;0.38;58.75;97135.19;1749275;82;21142;-62
2022/02/01 08:56:03;;;;;;;11.28;6.72;;;;;;;0.49;58.63;97134.28;1747320;82;20932;-64
2022/02/01 08:58:31;;;;;;;13.30;6.40;;;;;;;0.64;58.28;97127.33;1750088;82;20919;-60
2022/02/01 09:00:59;;;;;;;12.93;6.55;;;;;;;0.80;57.47;97134.86;1787165;80;20975;-64
2022/02/01 09:03:27;;;;;;;12.47;7.03;;;;;;;0.90;57.45;97136.80;1786814;80;21415;-64
2022/02/01 09:05:54;;;;;;;12.78;6.12;;;;;;;0.98;56.81;97139.00;1786940;80;21436;-64
2022/02/01 09:08:22;;;;;;;14.98;6.75;;;;;;;1.07;56.20;97140.14;1786898;80;20935;-60
2022/02/01 09:10:52;;;;;;;14.28;6.78;;;;;;;1.08;56.20;97143.86;1786724;80;20974;-60
2022/02/01 09:13:19;;;;;;;12.35;7.17;;;;;;;1.06;55.98;97150.43;1786934;80;20958;-64
2022/02/01 09:15:46;;;;;;;12.95;7.05;;;;;;;0.93;56.05;97142.39;1787219;80;20876;-61
2022/02/01 09:18:13;;;;;;;12.98;6.78;;;;;;;0.79;56.65;97145.15;1787397;80;21891;-60
2022/02/01 09:20:40;;;;;;;12.73;6.58;;;;;;;0.70;57.12;97138.73;1787233;80;20955;-62
2022/02/01 09:23:07;;;;;;;11.40;7.20;;;;;;;0.72;57.20;97135.84;1787524;80;20917;-64
2022/02/01 09:25:34;;;;;;;14.65;7.65;;;;;;;0.80;57.41;97134.86;1787361;80;20895;-61
2022/02/01 09:28:00;;;;;;;16.60;7.40;;;;;;;0.90;57.67;97137.61;1787605;80;20955;-61
2022/02/01 09:30:28;;;;;;;12.45;6.78;;;;;;;1.10;56.79;97138.33;1787402;80;21836;-60
2022/02/01 09:32:56;;;;;;;16.45;7.15;;;;;;;1.24;55.41;97137.67;1788557;80;20900;-63
2022/02/01 09:35:24;;;;;;;12.47;6.42;;;;;;;1.43;55.36;97137.28;1811961;78;32449;-57
2022/02/01 09:37:52;;;;;;;11.73;6.55;;;;;;;1.56;54.55;97123.64;1822233;78;21482;-59
2022/02/01 09:40:20;;;;;;;13.20;6.78;;;;;;;1.70;54.67;97120.31;1821203;78;20958;-65
2022/02/01 09:42:47;;;;;;;16.25;6.85;;;;;;;1.82;53.48;97118.28;1821192;78;21163;-63
2022/02/01 09:45:13;;;;;;;11.93;6.40;;;;;;;1.90;53.35;97117.01;1821071;78;20907;-59
2022/02/01 09:47:47;;;;;;;14.60;7.05;;;;;;;2.03;54.16;97129.74;1820479;78;21041;-61
2022/02/01 09:50:10;;;;;;;12.30;6.40;;;;;;;2.16;52.45;97126.66;1818710;78;21058;-62
2022/02/01 09:52:39;;;;;;;7.83;5.40;;;;;;;2.28;52.84;97123.28;1821062;78;21364;-59
2022/02/01 09:55:09;;;;;;;11.05;5.72;;;;;;;2.51;52.09;97120.19;1821192;78;21116;-65
2022/02/01 09:57:37;;;;;;;10.48;4.87;;;;;;;2.63;50.54;97126.05;1821171;78;20983;-62
2022/02/01 10:00:13;;;;;;;9.65;6.25;;;;;;;2.44;50.39;97123.60;1819556;78;21047;-59
2022/02/01 10:02:40;;;;;;;11.75;5.75;;;;;;;2.30;51.14;97117.72;1818931;78;21031;-60
2022/02/01 10:05:11;;;;;;;9.40;5.47;;;;;;;2.15;51.04;97120.29;1820204;78;21525;-59
2022/02/01 10:07:53;;;;;;;8.63;6.10;;;;;;;2.04;51.91;97137.43;1819953;78;21071;-63
2022/02/01 10:10:30;;;;;;;7.83;4.62;;;;;;;1.92;51.73;97134.70;1819941;78;21474;-59
2022/02/01 10:13:00;;;;;;;7.08;4.20;;;;;;;1.79;50.88;97132.53;1819247;78;21074;-60
2022/02/01 10:15:28;;;;;;;10.68;3.52;;;;;;;1.62;50.07;97135.84;1812683;78;21041;-59
2022/02/01 10:18:00;;;;;;;6.05;4.00;;;;;;;1.36;49.05;97125.11;1802450;78;21517;-59
2022/02/01 10:20:36;;;;;;;8.30;4.17;;;;;;;1.15;49.53;97125.19;1788107;80;21068;-64
2022/02/01 10:23:24;;;;;;;9.18;5.00;;;;;;;0.98;51.03;97120.03;1791349;77;20939;-63
2022/02/01 10:26:06;;;;;;;9.68;4.00;;;;;;;0.91;51.75;97118.12;1805002;77;21848;-61
2022/02/01 10:31:33;;;;;;;13.13;6.30;;;;;;;0.95;52.78;97125.80;1789578;80;20978;-63
2022/02/01 10:34:01;;;;;;;9.10;5.25;;;;;;;0.89;52.83;97132.08;1811861;77;21750;-60
2022/02/01 10:36:22;;;;;;;9.28;4.92;;;;;;;0.79;52.76;97137.23;1819267;76;20951;-59
2022/02/01 10:38:49;;;;;;;8.25;5.28;;;;;;;0.75;53.23;97138.79;1792411;78;20935;-60
2022/02/01 10:41:16;;;;;;;9.25;5.03;;;;;;;0.76;53.73;97133.77;1816357;78;20967;-61
2022/02/01 10:43:49;;;;;;;10.80;5.67;;;;;;;0.74;53.43;97129.27;1800300;79;20919;-63
2022/02/01 10:46:16;;;;;;;9.83;4.72;;;;;;;0.70;54.25;97124.23;1766711;79;21689;-62
2022/02/01 10:48:53;;;;;;;10.38;4.75;;;;;;;0.68;53.76;97123.69;1804145;78;20856;-58
2022/02/01 10:51:23;;;;;;;9.40;4.80;;;;;;;0.64;54.09;97115.98;1783850;78;20979;-59
2022/02/01 10:53:55;;;;;;;10.05;4.62;;;;;;;0.60;53.87;97116.21;1791032;80;20919;-62
2022/02/01 10:56:23;;;;;;;7.95;3.90;;;;;;;0.54;54.28;97108.77;1764973;81;20994;-65
2022/02/01 10:58:51;;;;;;;9.90;5.30;;;;;;;0.43;53.59;97111.02;1783820;78;21852;-63
2022/02/01 11:01:20;;;;;;;10.53;4.80;;;;;;;0.38;53.96;97110.97;1755020;81;21450;-62
2022/02/01 11:03:49;;;;;;;8.13;4.62;;;;;;;0.33;54.50;97107.50;1760811;80;20907;-61
2022/02/01 11:06:16;;;;;;;7.87;4.12;;;;;;;0.30;54.94;97103.52;1734870;82;21438;-62
2022/02/01 11:08:45;;;;;;;5.85;3.72;;;;;;;0.31;53.85;97101.66;1760294;81;20915;-64
2022/02/01 11:11:19;;;;;;;8.73;3.80;;;;;;;0.23;53.64;97100.79;1735179;82;21109;-59
2022/02/01 11:13:48;;;;;;;6.08;3.58;;;;;;;0.13;53.96;97097.51;1760070;81;21061;-64
2022/02/01 11:16:26;;;;;;;5.78;2.95;;;;;;;0.04;53.10;97121.88;1734638;82;21042;-64
2022/02/01 11:19:03;;;;;;;7.20;2.80;;;;;;;-0.06;52.90;97130.44;1776095;78;21167;-60
2022/02/01 11:21:30;;;;;;;5.15;2.30;;;;;;;-0.13;52.48;97111.39;1761574;81;21025;-63
2022/02/01 11:24:05;;;;;;;5.47;2.70;;;;;;;-0.20;51.61;97114.20;1790850;80;21032;-64
2022/02/01 11:26:37;;;;;;;4.12;2.20;;;;;;;-0.18;51.40;97117.90;1764321;81;20975;-64
2022/02/01 11:31:48;;;;;;;4.67;1.92;;;;;;;-0.33;50.75;97117.16;1783590;78;20734;-59
2022/02/01 11:34:27;;;;;;;3.85;1.90;;;;;;;-0.34;50.61;97111.64;1748298;81;20904;-60
2022/02/01 11:37:03;;;;;;;3.98;1.95;;;;;;;-0.31;50.42;97107.22;1774611;79;21104;-59
2022/02/01 11:39:33;;;;;;;3.00;1.90;;;;;;;-0.27;50.11;97103.06;1739647;81;20967;-58
2022/02/01 11:42:12;;;;;;;3.87;1.77;;;;;;;-0.26;49.69;97103.31;1766411;79;21468;-57
2022/02/01 11:44:39;;;;;;;4.15;2.08;;;;;;;-0.26;50.21;97104.63;1748958;82;21006;-64
2022/02/01 11:47:20;;;;;;;3.30;1.90;;;;;;;-0.24;49.76;97105.21;1760306;80;21405;-63
2022/02/01 11:49:53;;;;;;;4.03;1.90;;;;;;;-0.18;49.63;97106.86;1729866;81;21395;-62
2022/02/01 11:52:20;;;;;;;2.27;1.65;;;;;;;-0.16;48.41;97106.09;1762794;79;20961;-63
2022/02/01 11:54:47;;;;;;;3.50;2.00;;;;;;;-0.20;48.62;97107.63;1736416;82;20849;-60
2022/02/01 11:57:27;;;;;;;5.08;2.55;;;;;;;-0.13;49.27;97097.72;1777584;80;20911;-64
2022/02/01 12:00:05;;;;;;;5.22;2.58;;;;;;;-0.01;49.20;97111.56;1752748;82;20961;-59
2022/02/01 12:02:42;;;;;;;7.42;2.45;;;;;;;0.10;48.46;97099.82;1776150;80;21070;-62
2022/02/01 12:05:38;;;;;;;5.92;2.47;;;;;;;0.20;48.69;97101.27;1752513;81;20885;-63
2022/02/01 12:10:48;;;;;;;3.55;1.60;;;;;;;0.25;48.27;97102.65;1745446;81;20951;-63
2022/02/01 12:13:19;;;;;;;5.22;1.60;;;;;;;0.31;47.56;97101.66;1753345;80;21017;-63
2022/02/01 12:15:52;;;;;;;4.85;1.90;;;;;;;0.51;47.41;97100.58;1751087;81;21572;-58
2022/02/01 12:18:30;;;;;;;5.78;2.12;;;;;;;0.78;47.98;97102.69;1776978;80;21476;-62
2022/02/01 12:21:23;;;;;;;3.80;2.12;;;;;;;1.09;47.61;97097.96;1751917;82;21029;-63
2022/02/01 12:23:50;;;;;;;11.88;5.92;;;;;;;1.42;47.51;97096.09;1776899;80;20970;-59
2022/02/01 12:26:23;;;;;;;6.05;3.33;;;;;;;1.81;46.34;97099.55;1749729;82;21129;-64
2022/02/01 12:28:51;;;;;;;4.20;2.12;;;;;;;2.09;45.27;97099.67;1771066;80;21071;-62
2022/02/01 12:31:18;;;;;;;4.78;2.40;;;;;;;2.19;45.78;97099.70;1752674;82;20931;-59
2022/02/01 12:33:48;;;;;;;7.05;2.58;;;;;;;2.08;44.50;97108.64;1777892;79;21379;-61
2022/02/01 12:36:19;;;;;;;4.30;2.30;;;;;;;1.93;45.54;97105.39;1752522;81;20944;-62
2022/02/01 12:38:48;;;;;;;4.15;2.42;;;;;;;1.83;45.23;97111.16;1777934;80;20959;-62
2022/02/01 12:41:17;;;;;;;5.70;2.80;;;;;;;1.69;44.91;97110.02;1741437;82;21126;-57
2022/02/01 12:46:42;;;;;;;4.17;1.87;;;;;;;1.40;45.90;97110.88;1722274;83;20943;-64
2022/02/01 12:49:03;;;;;;;4.12;1.87;;;;;;;1.29;45.12;97107.38;1744817;82;21396;-60
2022/02/01 12:51:46;;;;;;;3.90;2.08;;;;;;;1.16;45.47;97103.02;1721973;83;21103;-62
2022/02/01 12:54:33;;;;;;;4.33;2.00;;;;;;;1.16;45.29;97096.42;1747358;82;21073;-60
2022/02/01 12:57:15;;;;;;;5.17;2.17;;;;;;;1.16;45.44;97092.47;1722665;83;21557;-64
2022/02/01 12:59:50;;;;;;;5.28;2.27;;;;;;;1.27;45.97;97094.94;1746773;82;20879;-61
2022/02/01 13:02:20;;;;;;;5.55;1.85;;;;;;;1.48;45.98;97100.38;1721475;83;21099;-58
2022/02/01 13:04:52;;;;;;;4.87;1.87;;;;;;;1.60;45.15;97099.12;1745668;82;21557;-57
2022/02/01 13:21:23;;;;;;;4.05;2.02;;;;;;;1.47;45.54;97100.89;1747139;82;21410;-64
2022/02/01 13:23:54;;;;;;;4.28;2.15;;;;;;;1.27;46.58;97097.57;1722637;83;21446;-65
2022/02/01 13:26:27;;;;;;;4.85;3.00;;;;;;;1.16;47.28;97093.79;1746755;82;20950;-62
2022/02/01 13:29:00;;;;;;;6.67;2.50;;;;;;;1.14;47.31;97091.93;1723058;83;21308;-61